Bogard Atmospheric Data: 04/08/2021 Summary  Detailed Graphs  Station List

  Temperature     Wind Precipitation Visibility
Timestamp Air Wet
Bulb
Dew-
point
24-hr
Max
24-hr
Min
Relative
Humidity
Atmospheric
Pressure
Avg
Speed
Avg
Dir
Spot
Speed
Spot
Dir
Max
Speed
Max
Dir
  Rate Situation Start End 1 hr 3 hr 6 hr 12 hr 24 hr   Situation
Date Time °F °F °F °F °F % in Hg mph ° mph ° mph ° Y/N in/hr text Date Time Date Time in in in in in mi text
04/08/2021 12:02 AM 27.32 25.16 21.02 57.20 21.74 76.0 Not Reported 1.12 W 0.67 NW 1.79 W No 0.000 No Precipitation 03/22/2021 10:21 PM 03/22/2021 10:26 PM 0.000 0.000 0.000 0.000 0.000 Not Reported Not Reported
04/08/2021 12:17 AM 26.78 24.98 21.20 57.20 21.74 79.0 Not Reported 1.12 SW 0.00 SW 1.34 W No 0.000 No Precipitation 03/22/2021 10:21 PM 03/22/2021 10:26 PM 0.000 0.000 0.000 0.000 0.000 Not Reported Not Reported
04/08/2021 12:32 AM 26.60 24.80 21.20 57.20 21.74 79.0 Not Reported 0.22 NW 0.67 W 2.24 W No 0.000 No Precipitation 03/22/2021 10:21 PM 03/22/2021 10:26 PM 0.000 0.000 0.000 0.000 0.000 Not Reported Not Reported
04/08/2021 12:47 AM 26.42 24.80 21.02 57.20 21.74 79.0 Not Reported 1.12 W 0.67 W 2.91 NE No 0.000 No Precipitation 03/22/2021 10:21 PM 03/22/2021 10:26 PM 0.000 0.000 0.000 0.000 0.000 Not Reported Not Reported
04/08/2021 01:02 AM 26.78 24.98 21.38 57.20 21.74 80.0 Not Reported 1.12 W 0.89 NW 2.68 W No 0.000 No Precipitation 03/22/2021 10:21 PM 03/22/2021 10:26 PM 0.000 0.000 0.000 0.000 0.000 Not Reported Not Reported
04/08/2021 01:17 AM 26.42 24.98 21.38 57.20 21.74 80.0 Not Reported 1.57 W 0.89 N 2.24 N No 0.000 No Precipitation 03/22/2021 10:21 PM 03/22/2021 10:26 PM 0.000 0.000 0.000 0.000 0.000 Not Reported Not Reported
04/08/2021 01:32 AM 25.34 23.72 20.66 57.20 21.74 82.0 Not Reported 0.45 NE 0.00 NE 2.24 S No 0.000 No Precipitation 03/22/2021 10:21 PM 03/22/2021 10:26 PM 0.000 0.000 0.000 0.000 0.000 Not Reported Not Reported
04/08/2021 01:47 AM 25.34 23.90 21.02 57.20 21.74 83.0 Not Reported 0.00 W 0.67 SW 1.57 W No 0.000 No Precipitation 03/22/2021 10:21 PM 03/22/2021 10:26 PM 0.000 0.000 0.000 0.000 0.000 Not Reported Not Reported
04/08/2021 02:02 AM 25.52 24.08 20.84 57.20 21.74 82.0 Not Reported 2.01 NW 1.12 SW 2.91 W No 0.000 No Precipitation 03/22/2021 10:21 PM 03/22/2021 10:26 PM 0.000 0.000 0.000 0.000 0.000 Not Reported Not Reported
04/08/2021 02:17 AM 24.80 23.18 20.30 57.20 21.74 83.0 Not Reported 0.00 E 1.79 SE 1.79 SW No 0.000 No Precipitation 03/22/2021 10:21 PM 03/22/2021 10:26 PM 0.000 0.000 0.000 0.000 0.000 Not Reported Not Reported
04/08/2021 02:32 AM 23.90 22.82 20.30 57.20 21.74 85.0 Not Reported 0.00 N 0.00 W 0.89 E No 0.000 No Precipitation 03/22/2021 10:21 PM 03/22/2021 10:26 PM 0.000 0.000 0.000 0.000 0.000 Not Reported Not Reported
04/08/2021 02:47 AM 23.72 22.64 20.12 57.20 21.74 86.0 Not Reported 0.00 N 0.00 SW 0.00 W No 0.000 No Precipitation 03/22/2021 10:21 PM 03/22/2021 10:26 PM 0.000 0.000 0.000 0.000 0.000 Not Reported Not Reported
04/08/2021 03:02 AM 23.54 22.46 20.12 57.20 21.74 86.0 Not Reported 0.45 N 0.22 N 0.67 N No 0.000 No Precipitation 03/22/2021 10:21 PM 03/22/2021 10:26 PM 0.000 0.000 0.000 0.000 0.000 Not Reported Not Reported
04/08/2021 03:17 AM 23.18 22.46 19.94 57.20 21.74 86.0 Not Reported 1.12 W 0.22 W 1.57 W No 0.000 No Precipitation 03/22/2021 10:21 PM 03/22/2021 10:26 PM 0.000 0.000 0.000 0.000 0.000 Not Reported Not Reported
04/08/2021 03:32 AM 22.82 21.92 19.76 57.20 21.74 87.0 Not Reported 1.34 SW 0.22 SW 1.34 SW No 0.000 No Precipitation 03/22/2021 10:21 PM 03/22/2021 10:26 PM 0.000 0.000 0.000 0.000 0.000 Not Reported Not Reported
04/08/2021 03:47 AM 22.64 21.74 19.58 57.20 21.74 88.0 Not Reported 1.79 E 0.00 SE 2.01 E No 0.000 No Precipitation 03/22/2021 10:21 PM 03/22/2021 10:26 PM 0.000 0.000 0.000 0.000 0.000 Not Reported Not Reported
04/08/2021 04:02 AM 22.10 21.20 19.40 57.20 21.74 89.0 Not Reported 0.22 SW 2.24 SW 1.79 SW No 0.000 No Precipitation 03/22/2021 10:21 PM 03/22/2021 10:26 PM 0.000 0.000 0.000 0.000 0.000 Not Reported Not Reported
04/08/2021 04:17 AM 21.92 21.02 19.40 57.20 21.56 89.0 Not Reported 0.45 NE 0.00 NE 1.79 SW No 0.000 No Precipitation 03/22/2021 10:21 PM 03/22/2021 10:26 PM 0.000 0.000 0.000 0.000 0.000 Not Reported Not Reported
04/08/2021 04:32 AM 21.74 20.84 19.04 57.20 21.56 89.0 Not Reported 0.00 N 0.22 W 0.89 N No 0.000 No Precipitation 03/22/2021 10:21 PM 03/22/2021 10:26 PM 0.000 0.000 0.000 0.000 0.000 Not Reported Not Reported
04/08/2021 04:47 AM 21.56 20.84 19.22 57.20 21.56 90.0 Not Reported 0.45 SW 0.00 SW 1.57 W No 0.000 No Precipitation 03/22/2021 10:21 PM 03/22/2021 10:26 PM 0.000 0.000 0.000 0.000 0.000 Not Reported Not Reported
04/08/2021 05:02 AM 21.38 20.48 19.04 57.20 21.20 90.0 Not Reported 0.00 SW 0.45 SW 0.67 SW No 0.000 No Precipitation 03/22/2021 10:21 PM 03/22/2021 10:26 PM 0.000 0.000 0.000 0.000 0.000 Not Reported Not Reported
04/08/2021 05:17 AM 21.38 20.84 19.40 57.20 21.02 91.0 Not Reported 0.67 W 0.67 W 1.12 W No 0.000 No Precipitation 03/22/2021 10:21 PM 03/22/2021 10:26 PM 0.000 0.000 0.000 0.000 0.000 Not Reported Not Reported
04/08/2021 05:32 AM 21.20 20.66 19.22 57.20 21.02 91.0 Not Reported 0.45 SW 0.00 N 1.34 W No 0.000 No Precipitation 03/22/2021 10:21 PM 03/22/2021 10:26 PM 0.000 0.000 0.000 0.000 0.000 Not Reported Not Reported
04/08/2021 05:47 AM 20.84 20.30 18.86 57.20 20.84 92.0 Not Reported 0.00 NW 0.00 NW 1.12 W No 0.000 No Precipitation 03/22/2021 10:21 PM 03/22/2021 10:26 PM 0.000 0.000 0.000 0.000 0.000 Not Reported Not Reported
04/08/2021 06:02 AM 20.66 19.94 18.68 57.20 20.66 91.0 Not Reported 0.00 S 0.00 S 0.89 N No 0.000 No Precipitation 03/22/2021 10:21 PM 03/22/2021 10:26 PM 0.000 0.000 0.000 0.000 0.000 Not Reported Not Reported
04/08/2021 06:17 AM 20.12 19.58 18.32 57.20 20.12 92.0 Not Reported 0.67 S 0.00 S 1.12 SE No 0.000 No Precipitation 03/22/2021 10:21 PM 03/22/2021 10:26 PM 0.000 0.000 0.000 0.000 0.000 Not Reported Not Reported
04/08/2021 06:32 AM 19.94 19.40 18.14 57.20 19.76 92.0 Not Reported 0.00 N 0.00 NE 1.12 NE No 0.000 No Precipitation 03/22/2021 10:21 PM 03/22/2021 10:26 PM 0.000 0.000 0.000 0.000 0.000 Not Reported Not Reported
04/08/2021 06:47 AM 20.12 19.58 18.14 57.20 19.76 92.0 Not Reported 0.00 W 0.00 W 0.45 W No 0.000 No Precipitation 03/22/2021 10:21 PM 03/22/2021 10:26 PM 0.000 0.000 0.000 0.000 0.000 Not Reported Not Reported
04/08/2021 07:02 AM 21.20 20.48 19.04 57.20 19.76 91.0 Not Reported 0.00 NE 0.89 SE 2.68 NE No 0.000 No Precipitation 03/22/2021 10:21 PM 03/22/2021 10:26 PM 0.000 0.000 0.000 0.000 0.000 Not Reported Not Reported
04/08/2021 07:17 AM 21.74 21.02 19.22 57.20 19.76 90.0 Not Reported 0.00 N 0.00 SE 0.67 SE No 0.000 No Precipitation 03/22/2021 10:21 PM 03/22/2021 10:26 PM 0.000 0.000 0.000 0.000 0.000 Not Reported Not Reported
04/08/2021 07:32 AM 23.18 22.46 20.66 57.20 19.76 89.0 Not Reported 0.89 E 1.79 E 2.01 E No 0.000 No Precipitation 03/22/2021 10:21 PM 03/22/2021 10:26 PM 0.000 0.000 0.000 0.000 0.000 Not Reported Not Reported
04/08/2021 07:47 AM 24.44 23.54 21.74 57.20 19.76 89.0 Not Reported 0.00 N 0.00 W 1.12 E No 0.000 No Precipitation 03/22/2021 10:21 PM 03/22/2021 10:26 PM 0.000 0.000 0.000 0.000 0.000 Not Reported Not Reported
04/08/2021 08:03 AM 26.60 25.52 22.82 57.20 19.76 84.0 Not Reported 1.34 W 0.45 SW 2.01 W No 0.000 No Precipitation 03/22/2021 10:21 PM 03/22/2021 10:26 PM 0.000 0.000 0.000 0.000 0.000 Not Reported Not Reported
04/08/2021 08:17 AM 29.66 27.50 23.72 57.20 19.76 77.0 Not Reported 0.67 NW 1.12 SE 1.34 N No 0.000 No Precipitation 03/22/2021 10:21 PM 03/22/2021 10:26 PM 0.000 0.000 0.000 0.000 0.000 Not Reported Not Reported
04/08/2021 08:32 AM 31.28 28.76 24.44 57.20 19.76 73.0 Not Reported 0.22 E 0.89 N 1.57 NW No 0.000 No Precipitation 03/22/2021 10:21 PM 03/22/2021 10:26 PM 0.000 0.000 0.000 0.000 0.000 Not Reported Not Reported
04/08/2021 08:47 AM 32.18 30.20 25.52 57.20 19.76 74.0 Not Reported 2.01 S 0.45 SE 2.91 S No 0.000 No Precipitation 03/22/2021 10:21 PM 03/22/2021 10:26 PM 0.000 0.000 0.000 0.000 0.000 Not Reported Not Reported
04/08/2021 09:02 AM 35.60 31.82 25.70 57.20 19.76 66.0 Not Reported 1.57 SE 1.57 E 2.91 E No 0.000 No Precipitation 03/22/2021 10:21 PM 03/22/2021 10:26 PM 0.000 0.000 0.000 0.000 0.000 Not Reported Not Reported
04/08/2021 09:17 AM 36.50 33.08 26.96 57.20 19.76 67.0 Not Reported 2.46 SE 2.46 SE 3.58 SE No 0.000 No Precipitation 03/22/2021 10:21 PM 03/22/2021 10:26 PM 0.000 0.000 0.000 0.000 0.000 Not Reported Not Reported
04/08/2021 09:32 AM 36.50 32.72 28.04 57.20 19.76 71.0 Not Reported 3.80 E 4.47 E 4.47 SE No 0.000 No Precipitation 03/22/2021 10:21 PM 03/22/2021 10:26 PM 0.000 0.000 0.000 0.000 0.000 Not Reported Not Reported
04/08/2021 09:47 AM 37.40 32.72 26.42 57.20 19.76 64.0 Not Reported 3.80 E 5.14 SE 5.59 SE No 0.000 No Precipitation 03/22/2021 10:21 PM 03/22/2021 10:26 PM 0.000 0.000 0.000 0.000 0.000 Not Reported Not Reported
04/08/2021 10:02 AM 37.58 33.80 27.32 57.20 19.76 66.0 Not Reported 4.25 E 3.58 SE 4.70 E No 0.000 No Precipitation 03/22/2021 10:21 PM 03/22/2021 10:26 PM 0.000 0.000 0.000 0.000 0.000 Not Reported Not Reported
04/08/2021 10:17 AM 42.08 35.60 25.16 57.20 19.76 50.0 Not Reported 3.13 E 4.70 NE 4.70 E No 0.000 No Precipitation 03/22/2021 10:21 PM 03/22/2021 10:26 PM 0.000 0.000 0.000 0.000 0.000 Not Reported Not Reported
04/08/2021 10:32 AM 46.76 34.70 10.04 57.20 19.76 22.0 Not Reported 5.14 N 4.92 NW 9.84 NW No 0.000 No Precipitation 03/22/2021 10:21 PM 03/22/2021 10:26 PM 0.000 0.000 0.000 0.000 0.000 Not Reported Not Reported
04/08/2021 10:47 AM 47.48 35.96 11.48 57.20 19.76 22.0 Not Reported 3.13 NW 3.80 W 7.83 N No 0.000 No Precipitation 03/22/2021 10:21 PM 03/22/2021 10:26 PM 0.000 0.000 0.000 0.000 0.000 Not Reported Not Reported
04/08/2021 11:02 AM 48.02 36.50 15.08 57.20 19.76 25.0 Not Reported 6.93 N 7.38 NW 9.40 N No 0.000 No Precipitation 03/22/2021 10:21 PM 03/22/2021 10:26 PM 0.000 0.000 0.000 0.000 0.000 Not Reported Not Reported
04/08/2021 11:17 AM 48.56 36.86 14.90 57.20 19.76 26.0 Not Reported 5.14 NW 8.05 NW 8.95 NW No 0.000 No Precipitation 03/22/2021 10:21 PM 03/22/2021 10:26 PM 0.000 0.000 0.000 0.000 0.000 Not Reported Not Reported
04/08/2021 11:32 AM 48.74 37.22 15.98 57.20 19.76 25.0 Not Reported 5.59 N 4.25 NW 8.95 NW No 0.000 No Precipitation 03/22/2021 10:21 PM 03/22/2021 10:26 PM 0.000 0.000 0.000 0.000 0.000 Not Reported Not Reported
04/08/2021 11:47 AM 50.90 37.76 16.52 57.20 19.76 24.0 Not Reported 3.13 W 4.25 W 6.71 W No 0.000 No Precipitation 03/22/2021 10:21 PM 03/22/2021 10:26 PM 0.000 0.000 0.000 0.000 0.000 Not Reported Not Reported
04/08/2021 12:02 PM 51.26 38.12 15.80 57.20 19.76 24.0 Not Reported 3.58 W 4.03 NE 8.50 W No 0.000 No Precipitation 03/22/2021 10:21 PM 03/22/2021 10:26 PM 0.000 0.000 0.000 0.000 0.000 Not Reported Not Reported
04/08/2021 12:17 PM 51.62 39.02 15.98 57.20 19.76 22.0 Not Reported 4.92 NW 5.59 NW 7.61 NE No 0.000 No Precipitation 03/22/2021 10:21 PM 03/22/2021 10:26 PM 0.000 0.000 0.000 0.000 0.000 Not Reported Not Reported
04/08/2021 12:32 PM 50.90 37.94 14.00 57.20 19.76 23.0 Not Reported 4.47 W 3.58 NW 9.40 NW No 0.000 No Precipitation 03/22/2021 10:21 PM 03/22/2021 10:26 PM 0.000 0.000 0.000 0.000 0.000 Not Reported Not Reported
04/08/2021 12:47 PM 52.34 38.48 15.08 57.20 19.76 22.0 Not Reported 4.70 N 4.03 NW 9.40 NW No 0.000 No Precipitation 03/22/2021 10:21 PM 03/22/2021 10:26 PM 0.000 0.000 0.000 0.000 0.000 Not Reported Not Reported
04/08/2021 01:02 PM 51.98 38.48 14.00 57.20 19.76 22.0 Not Reported 4.70 N 6.49 NE 9.17 NW No 0.000 No Precipitation 03/22/2021 10:21 PM 03/22/2021 10:26 PM 0.000 0.000 0.000 0.000 0.000 Not Reported Not Reported
04/08/2021 01:17 PM 53.42 39.74 14.00 57.20 19.76 21.0 Not Reported 3.80 NW 6.71 NW 10.74 NE No 0.000 No Precipitation 03/22/2021 10:21 PM 03/22/2021 10:26 PM 0.000 0.000 0.000 0.000 0.000 Not Reported Not Reported
04/08/2021 01:32 PM 55.22 39.92 14.36 57.20 19.76 20.0 Not Reported 5.59 NW 3.13 NW 8.72 N No 0.000 No Precipitation 03/22/2021 10:21 PM 03/22/2021 10:26 PM 0.000 0.000 0.000 0.000 0.000 Not Reported Not Reported
04/08/2021 01:47 PM 55.58 39.74 15.80 57.20 19.76 18.0 Not Reported 8.05 N 3.36 NW 11.63 NE No 0.000 No Precipitation 03/22/2021 10:21 PM 03/22/2021 10:26 PM 0.000 0.000 0.000 0.000 0.000 Not Reported Not Reported
04/08/2021 02:02 PM 55.04 41.18 15.80 57.20 19.76 20.0 Not Reported 3.36 W 4.92 N 7.16 W No 0.000 No Precipitation 03/22/2021 10:21 PM 03/22/2021 10:26 PM 0.000 0.000 0.000 0.000 0.000 Not Reported Not Reported
04/08/2021 02:17 PM 55.40 39.74 13.10 57.20 19.76 18.0 Not Reported 3.13 N 3.13 N 9.40 N No 0.000 No Precipitation 03/22/2021 10:21 PM 03/22/2021 10:26 PM 0.000 0.000 0.000 0.000 0.000 Not Reported Not Reported
04/08/2021 02:32 PM 55.22 39.92 13.46 57.20 19.76 18.0 Not Reported 3.80 N 3.58 W 9.62 W No 0.000 No Precipitation 03/22/2021 10:21 PM 03/22/2021 10:26 PM 0.000 0.000 0.000 0.000 0.000 Not Reported Not Reported
04/08/2021 02:47 PM 55.22 40.10 13.82 57.38 19.76 19.0 Not Reported 5.59 NW 3.80 NE 8.95 N No 0.000 No Precipitation 03/22/2021 10:21 PM 03/22/2021 10:26 PM 0.000 0.000 0.000 0.000 0.000 Not Reported Not Reported
04/08/2021 03:02 PM 56.30 41.00 15.98 57.38 19.76 19.0 Not Reported 4.92 N 7.38 NW 8.28 NE No 0.000 No Precipitation 03/22/2021 10:21 PM 03/22/2021 10:26 PM 0.000 0.000 0.000 0.000 0.000 Not Reported Not Reported
04/08/2021 03:17 PM 56.12 41.00 14.18 57.38 19.76 19.0 Not Reported 2.24 E 4.47 N 8.05 W No 0.000 No Precipitation 03/22/2021 10:21 PM 03/22/2021 10:26 PM 0.000 0.000 0.000 0.000 0.000 Not Reported Not Reported
04/08/2021 03:32 PM 56.66 40.64 14.18 57.56 19.76 18.0 Not Reported 4.25 NW 2.46 W 9.84 NW No 0.000 No Precipitation 03/22/2021 10:21 PM 03/22/2021 10:26 PM 0.000 0.000 0.000 0.000 0.000 Not Reported Not Reported
04/08/2021 03:47 PM 57.20 41.54 16.70 57.56 19.76 19.0 Not Reported 5.37 NW 6.71 W 6.93 N No 0.000 No Precipitation 03/22/2021 10:21 PM 03/22/2021 10:26 PM 0.000 0.000 0.000 0.000 0.000 Not Reported Not Reported
04/08/2021 04:02 PM 56.30 41.54 16.88 58.46 19.76 20.0 Not Reported 2.24 NW 3.58 NW 6.93 SW No 0.000 No Precipitation 03/22/2021 10:21 PM 03/22/2021 10:26 PM 0.000 0.000 0.000 0.000 0.000 Not Reported Not Reported
04/08/2021 04:17 PM 56.66 41.72 17.42 58.46 19.76 21.0 Not Reported 7.16 W 3.13 NW 10.29 W No 0.000 No Precipitation 03/22/2021 10:21 PM 03/22/2021 10:26 PM 0.000 0.000 0.000 0.000 0.000 Not Reported Not Reported
04/08/2021 04:32 PM 56.84 41.54 16.70 58.46 19.76 19.0 Not Reported 4.25 NW 2.01 NW 7.61 NW No 0.000 No Precipitation 03/22/2021 10:21 PM 03/22/2021 10:26 PM 0.000 0.000 0.000 0.000 0.000 Not Reported Not Reported
04/08/2021 04:47 PM 57.38 41.90 16.52 58.46 19.76 19.0 Not Reported 4.03 NW 4.70 N 9.17 NW No 0.000 No Precipitation 03/22/2021 10:21 PM 03/22/2021 10:26 PM 0.000 0.000 0.000 0.000 0.000 Not Reported Not Reported
04/08/2021 05:02 PM 55.76 40.82 16.70 58.46 19.76 21.0 Not Reported 6.49 N 7.61 NE 11.18 N No 0.000 No Precipitation 03/22/2021 10:21 PM 03/22/2021 10:26 PM 0.000 0.000 0.000 0.000 0.000 Not Reported Not Reported
04/08/2021 05:17 PM 55.04 41.00 18.32 58.46 19.76 22.0 Not Reported 5.59 N 4.70 NW 10.96 NW No 0.000 No Precipitation 03/22/2021 10:21 PM 03/22/2021 10:26 PM 0.000 0.000 0.000 0.000 0.000 Not Reported Not Reported
04/08/2021 05:32 PM 55.58 41.18 18.68 58.46 19.76 23.0 Not Reported 2.91 N 6.93 NW 9.84 N No 0.000 No Precipitation 03/22/2021 10:21 PM 03/22/2021 10:26 PM 0.000 0.000 0.000 0.000 0.000 Not Reported Not Reported
04/08/2021 05:47 PM 55.22 41.18 19.40 58.46 19.76 24.0 Not Reported 4.25 N 3.36 NW 8.05 NW No 0.000 No Precipitation 03/22/2021 10:21 PM 03/22/2021 10:26 PM 0.000 0.000 0.000 0.000 0.000 Not Reported Not Reported
04/08/2021 06:02 PM 55.58 41.54 19.76 58.46 19.76 24.0 Not Reported 4.03 NW 0.00 NW 8.50 NW No 0.000 No Precipitation 03/22/2021 10:21 PM 03/22/2021 10:26 PM 0.000 0.000 0.000 0.000 0.000 Not Reported Not Reported
04/08/2021 06:17 PM 54.86 41.00 19.58 58.46 19.76 24.0 Not Reported 5.14 NW 2.68 NE 8.50 NW No 0.000 No Precipitation 03/22/2021 10:21 PM 03/22/2021 10:26 PM 0.000 0.000 0.000 0.000 0.000 Not Reported Not Reported
04/08/2021 06:32 PM 53.96 40.82 20.48 58.46 19.76 26.0 Not Reported 4.92 NW 5.14 NW 7.38 NE No 0.000 No Precipitation 03/22/2021 10:21 PM 03/22/2021 10:26 PM 0.000 0.000 0.000 0.000 0.000 Not Reported Not Reported
04/08/2021 06:47 PM 52.70 39.92 20.66 58.46 19.76 28.0 Not Reported 3.13 N 1.12 NW 6.26 NW No 0.000 No Precipitation 03/22/2021 10:21 PM 03/22/2021 10:26 PM 0.000 0.000 0.000 0.000 0.000 Not Reported Not Reported
04/08/2021 07:02 PM 51.26 39.38 20.84 58.46 19.76 30.0 Not Reported 1.79 NW 4.25 W 4.47 N No 0.000 No Precipitation 03/22/2021 10:21 PM 03/22/2021 10:26 PM 0.000 0.000 0.000 0.000 0.000 Not Reported Not Reported
04/08/2021 07:17 PM 49.28 38.66 22.46 58.46 19.76 35.0 Not Reported 1.12 W 0.89 W 4.47 NW No 0.000 No Precipitation 03/22/2021 10:21 PM 03/22/2021 10:26 PM 0.000 0.000 0.000 0.000 0.000 Not Reported Not Reported
04/08/2021 07:32 PM 45.50 37.04 24.80 58.46 19.76 43.0 Not Reported 1.57 W 2.01 W 3.58 NW No 0.000 No Precipitation 03/22/2021 10:21 PM 03/22/2021 10:26 PM 0.000 0.000 0.000 0.000 0.000 Not Reported Not Reported
04/08/2021 07:47 PM 43.16 35.78 24.62 58.46 19.76 47.0 Not Reported 1.12 W 1.79 W 2.68 W No 0.000 No Precipitation 03/22/2021 10:21 PM 03/22/2021 10:26 PM 0.000 0.000 0.000 0.000 0.000 Not Reported Not Reported
04/08/2021 08:02 PM 42.44 34.88 24.26 58.46 19.76 46.0 Not Reported 2.01 W 2.68 NW 3.36 W No 0.000 No Precipitation 03/22/2021 10:21 PM 03/22/2021 10:26 PM 0.000 0.000 0.000 0.000 0.000 Not Reported Not Reported
04/08/2021 08:17 PM 39.74 34.16 24.98 58.46 19.76 54.0 Not Reported 1.34 W 1.34 W 2.46 W No 0.000 No Precipitation 03/22/2021 10:21 PM 03/22/2021 10:26 PM 0.000 0.000 0.000 0.000 0.000 Not Reported Not Reported
04/08/2021 08:32 PM 37.94 33.08 24.80 58.46 19.76 58.0 Not Reported 1.12 NW 0.67 W 1.57 W No 0.000 No Precipitation 03/22/2021 10:21 PM 03/22/2021 10:26 PM 0.000 0.000 0.000 0.000 0.000 Not Reported Not Reported
04/08/2021 08:47 PM 36.86 32.36 25.16 58.46 19.76 62.0 Not Reported 1.57 W 1.34 W 1.79 W No 0.000 No Precipitation 03/22/2021 10:21 PM 03/22/2021 10:26 PM 0.000 0.000 0.000 0.000 0.000 Not Reported Not Reported
04/08/2021 09:02 PM 35.78 32.00 25.16 58.46 19.76 64.0 Not Reported 1.57 W 1.12 W 1.79 W No 0.000 No Precipitation 03/22/2021 10:21 PM 03/22/2021 10:26 PM 0.000 0.000 0.000 0.000 0.000 Not Reported Not Reported
04/08/2021 09:17 PM 35.60 31.46 23.72 58.46 19.76 62.0 Not Reported 1.34 W 1.34 W 2.46 W No 0.000 No Precipitation 03/22/2021 10:21 PM 03/22/2021 10:26 PM 0.000 0.000 0.000 0.000 0.000 Not Reported Not Reported
04/08/2021 09:32 PM 34.34 30.56 23.54 58.46 19.76 64.0 Not Reported 0.22 W 0.67 W 1.34 W No 0.000 No Precipitation 03/22/2021 10:21 PM 03/22/2021 10:26 PM 0.000 0.000 0.000 0.000 0.000 Not Reported Not Reported
04/08/2021 09:47 PM 32.18 29.48 24.44 58.46 19.76 71.0 Not Reported 0.45 W 1.79 W 2.68 S No 0.000 No Precipitation 03/22/2021 10:21 PM 03/22/2021 10:26 PM 0.000 0.000 0.000 0.000 0.000 Not Reported Not Reported
04/08/2021 10:02 PM 32.00 29.12 23.90 58.46 19.76 71.0 Not Reported 0.67 NW 0.45 NW 1.12 W No 0.000 No Precipitation 03/22/2021 10:21 PM 03/22/2021 10:26 PM 0.000 0.000 0.000 0.000 0.000 Not Reported Not Reported
04/08/2021 10:17 PM 31.10 28.58 24.26 58.46 19.76 74.0 Not Reported 0.45 W 1.57 W 1.57 W No 0.000 No Precipitation 03/22/2021 10:21 PM 03/22/2021 10:26 PM 0.000 0.000 0.000 0.000 0.000 Not Reported Not Reported
04/08/2021 10:33 PM 30.56 28.22 23.72 58.46 19.76 75.0 Not Reported 1.57 W 2.01 W 2.01 W No 0.000 No Precipitation 03/22/2021 10:21 PM 03/22/2021 10:26 PM 0.000 0.000 0.000 0.000 0.000 Not Reported Not Reported
04/08/2021 10:47 PM 30.38 27.86 23.36 58.46 19.76 74.0 Not Reported 1.57 N 1.12 W 2.01 N No 0.000 No Precipitation 03/22/2021 10:21 PM 03/22/2021 10:26 PM 0.000 0.000 0.000 0.000 0.000 Not Reported Not Reported
04/08/2021 11:02 PM 30.02 27.50 23.54 58.46 19.76 76.0 Not Reported 1.57 NW 1.79 NW 2.24 NW No 0.000 No Precipitation 03/22/2021 10:21 PM 03/22/2021 10:26 PM 0.000 0.000 0.000 0.000 0.000 Not Reported Not Reported
04/08/2021 11:17 PM 28.76 26.78 23.18 58.46 19.76 79.0 Not Reported 1.79 NE 0.45 N 2.01 N No 0.000 No Precipitation 03/22/2021 10:21 PM 03/22/2021 10:26 PM 0.000 0.000 0.000 0.000 0.000 Not Reported Not Reported
04/08/2021 11:32 PM 27.68 25.88 23.18 58.46 19.76 82.0 Not Reported 0.67 SW 0.89 SW 0.89 SW No 0.000 No Precipitation 03/22/2021 10:21 PM 03/22/2021 10:26 PM 0.000 0.000 0.000 0.000 0.000 Not Reported Not Reported
04/08/2021 11:47 PM 27.14 25.52 23.00 58.46 19.76 84.0 Not Reported 0.00 N 0.45 N 0.89 SW No 0.000 No Precipitation 03/22/2021 10:21 PM 03/22/2021 10:26 PM 0.000 0.000 0.000 0.000 0.000 Not Reported Not Reported